Time;durP1;ratioP1;P1;durP2;ratioP2;P2;SDS_P1;SDS_P2;PMS_P1;PMS_P2;Temp;Humidity;BMP_temperature;BMP_pressure;BME280_temperature;BME280_humidity;BME280_pressure;Samples;Min_cycle;Max_cycle;Signal;HPM_P1;HPM_P2
2023/07/05 00:01:33;;;;;;;;;;;;;;;15.87;47.09;100654.63;5079901;28;883;-47
2023/07/05 00:03:59;;;;;;;;;;;;;;;15.88;47.24;100658.19;5080024;28;1070;-50
2023/07/05 00:06:24;;;;;;;;;;;;;;;15.87;47.10;100656.53;5080366;28;1142;-50
2023/07/05 00:08:51;;;;;;;;;;;;;;;15.95;47.03;100664.25;5079585;28;1157;-48
2023/07/05 00:11:16;;;;;;;;;;;;;;;15.94;47.04;100659.84;5079178;28;1035;-48
2023/07/05 00:13:42;;;;;;;;;;;;;;;15.86;47.11;100663.94;5079600;28;1994;-47
2023/07/05 00:16:08;;;;;;;;;;;;;;;15.89;46.90;100651.59;5079804;28;1213;-50
2023/07/05 00:18:35;;;;;;;;;;;;;;;15.96;46.87;100651.34;5079608;28;1197;-50
2023/07/05 00:21:04;;;;;;;;;;;;;;;15.86;47.18;100652.97;5079863;28;1115;-47
2023/07/05 00:23:30;;;;;;;;;;;;;;;15.88;46.95;100660.94;5079868;28;1158;-47
2023/07/05 00:25:56;;;;;;;;;;;;;;;15.91;46.90;100647.50;5079199;28;1093;-48
2023/07/05 00:28:22;;;;;;;;;;;;;;;15.81;47.14;100660.34;5079279;28;1210;-49
2023/07/05 00:30:47;;;;;;;;;;;;;;;15.88;46.78;100656.28;5079433;28;1226;-53
2023/07/05 00:33:13;;;;;;;;;;;;;;;15.78;47.08;100658.13;5061431;28;1984;-52
2023/07/05 00:35:48;;;;;;;;;;;;;;;15.78;47.31;100658.13;5079564;28;1142;-51
2023/07/05 00:38:14;;;;;;;;;;;;;;;15.78;47.15;100656.22;5079225;28;899;-51
2023/07/05 00:40:39;;;;;;;;;;;;;;;15.81;47.00;100657.63;5061853;28;1502;-49
2023/07/05 00:43:05;;;;;;;;;;;;;;;15.79;47.00;100660.63;5079208;28;1074;-48
2023/07/05 00:45:31;;;;;;;;;;;;;;;15.77;47.28;100659.22;5079443;28;1257;-47
2023/07/05 00:47:56;;;;;;;;;;;;;;;15.82;46.89;100651.03;5079306;28;1221;-48
2023/07/05 00:50:23;;;;;;;;;;;;;;;15.77;47.35;100645.50;5078867;28;1059;-51
2023/07/05 00:52:48;;;;;;;;;;;;;;;15.78;47.25;100648.00;5078712;28;1981;-50
2023/07/05 00:55:14;;;;;;;;;;;;;;;15.73;47.30;100648.78;5079544;28;1055;-50
2023/07/05 00:57:40;;;;;;;;;;;;;;;15.77;47.38;100624.41;5061364;28;1083;-49
2023/07/05 01:00:13;;;;;;;;;;;;;;;15.72;47.06;100630.72;5061017;28;1162;-50
2023/07/05 01:02:40;;;;;;;;;;;;;;;15.83;47.09;100639.81;5061236;28;944;-50
2023/07/05 01:05:07;;;;;;;;;;;;;;;15.79;47.25;100640.59;5060837;28;1214;-52
2023/07/05 01:07:33;;;;;;;;;;;;;;;15.70;47.27;100643.88;5061161;28;1051;-51
2023/07/05 01:09:58;;;;;;;;;;;;;;;15.72;47.23;100646.31;5078392;28;1059;-52
2023/07/05 01:12:25;;;;;;;;;;;;;;;15.78;47.31;100641.69;5060777;28;1973;-52
2023/07/05 01:14:56;;;;;;;;;;;;;;;15.77;47.35;100631.78;5059898;28;1106;-53
2023/07/05 01:17:24;;;;;;;;;;;;;;;15.76;47.17;100636.47;5060888;28;1126;-47
2023/07/05 01:20:03;;;;;;;;;;;;;;;15.71;47.33;100636.44;5060888;28;1183;-48
2023/07/05 01:22:47;;;;;;;;;;;;;;;15.68;47.40;100642.47;5060938;28;1023;-49
2023/07/05 01:25:31;;;;;;;;;;;;;;;15.66;47.21;100641.94;5049177;28;1462;-47
2023/07/05 01:28:03;;;;;;;;;;;;;;;15.69;47.07;100642.22;5078641;28;1135;-48
2023/07/05 01:30:28;;;;;;;;;;;;;;;15.70;47.04;100637.56;5078451;28;1046;-46
2023/07/05 01:32:58;;;;;;;;;;;;;;;15.79;47.15;100640.59;5078069;28;1988;-47
2023/07/05 01:35:25;;;;;;;;;;;;;;;15.67;47.27;100643.56;5060478;28;1064;-50
2023/07/05 01:37:51;;;;;;;;;;;;;;;15.70;46.97;100649.34;5046797;28;1195;-49
2023/07/05 01:40:22;;;;;;;;;;;;;;;15.66;47.10;100642.75;5077937;28;1209;-52
2023/07/05 01:42:48;;;;;;;;;;;;;;;15.72;46.91;100646.31;5078164;28;1042;-47
2023/07/05 01:45:14;;;;;;;;;;;;;;;15.66;47.29;100650.97;5060183;28;1146;-49
2023/07/05 01:47:41;;;;;;;;;;;;;;;15.70;46.85;100641.13;5077535;28;1240;-50
2023/07/05 01:50:08;;;;;;;;;;;;;;;15.67;47.24;100644.41;5060156;28;1154;-46
2023/07/05 01:52:35;;;;;;;;;;;;;;;15.70;47.11;100640.31;5077914;28;1915;-51
2023/07/05 01:55:07;;;;;;;;;;;;;;;15.65;47.15;100652.06;5060534;28;1634;-50
2023/07/05 01:57:37;;;;;;;;;;;;;;;15.62;47.23;100649.06;5077969;28;1155;-48
2023/07/05 02:00:07;;;;;;;;;;;;;;;15.62;46.98;100652.59;5059604;28;1322;-52
2023/07/05 02:02:45;;;;;;;;;;;;;;;15.66;47.02;100645.50;5076875;28;871;-50
2023/07/05 02:05:10;;;;;;;;;;;;;;;15.66;46.85;100639.19;5059912;28;1357;-50
2023/07/05 02:07:36;;;;;;;;;;;;;;;15.64;47.15;100650.44;5060103;28;1147;-52
2023/07/05 02:10:01;;;;;;;;;;;;;;;15.60;47.28;100652.06;5076781;28;1098;-53
2023/07/05 02:12:27;;;;;;;;;;;;;;;15.56;47.12;100649.03;5059206;28;2100;-50
2023/07/05 02:14:52;;;;;;;;;;;;;;;15.53;47.42;100651.50;5077523;28;1135;-51
2023/07/05 02:17:18;;;;;;;;;;;;;;;15.60;47.11;100649.34;5077710;28;1166;-51
2023/07/05 02:19:44;;;;;;;;;;;;;;;15.60;47.17;100657.56;5077757;28;1205;-52
2023/07/05 02:22:09;;;;;;;;;;;;;;;15.59;47.32;100658.63;5059392;28;2108;-50
2023/07/05 02:24:35;;;;;;;;;;;;;;;15.67;47.20;100649.06;5077212;28;1078;-47
2023/07/05 02:27:00;;;;;;;;;;;;;;;15.64;47.10;100647.69;5077274;28;977;-53
2023/07/05 02:29:26;;;;;;;;;;;;;;;15.70;46.82;100659.50;5077466;28;1294;-51
2023/07/05 02:31:52;;;;;;;;;;;;;;;15.55;47.09;100641.09;5077401;28;1910;-52
2023/07/05 02:34:17;;;;;;;;;;;;;;;15.65;47.15;100643.03;5076920;28;1114;-50
2023/07/05 02:36:43;;;;;;;;;;;;;;;15.68;46.88;100642.47;5077188;28;995;-47
2023/07/05 02:39:08;;;;;;;;;;;;;;;15.71;46.82;100642.78;5068801;28;1078;-50
2023/07/05 02:41:34;;;;;;;;;;;;;;;15.64;47.11;100647.69;5077001;28;1038;-50
2023/07/05 02:43:59;;;;;;;;;;;;;;;15.64;46.95;100644.13;5059139;28;1241;-49
2023/07/05 02:46:26;;;;;;;;;;;;;;;15.56;47.12;100642.75;5076904;28;1225;-51
2023/07/05 02:48:56;;;;;;;;;;;;;;;15.62;46.98;100649.06;5076611;28;1219;-50
2023/07/05 02:51:22;;;;;;;;;;;;;;;15.59;47.04;100644.13;5074831;28;884;-52
2023/07/05 02:53:48;;;;;;;;;;;;;;;15.64;47.23;100646.84;5076381;28;1980;-47
2023/07/05 02:56:13;;;;;;;;;;;;;;;15.67;47.01;100636.19;5058701;28;1016;-52
2023/07/05 02:58:39;;;;;;;;;;;;;;;15.72;46.78;100651.81;5076560;28;1073;-47
2023/07/05 03:01:05;;;;;;;;;;;;;;;15.62;46.83;100649.06;5058956;28;1453;-49
2023/07/05 03:03:30;;;;;;;;;;;;;;;15.63;47.18;100653.44;5076411;28;1063;-48
2023/07/05 03:05:59;;;;;;;;;;;;;;;15.68;46.82;100657.03;5076914;28;1213;-52
2023/07/05 03:08:28;;;;;;;;;;;;;;;15.56;47.04;100651.78;5075867;28;1002;-52
2023/07/05 03:10:54;;;;;;;;;;;;;;;15.53;47.39;100654.25;5076321;28;1169;-49
2023/07/05 03:13:21;;;;;;;;;;;;;;;15.60;47.02;100649.34;5058304;28;1973;-50
2023/07/05 03:15:46;;;;;;;;;;;;;;;15.57;47.15;100652.59;5058490;28;1169;-51
2023/07/05 03:18:12;;;;;;;;;;;;;;;15.56;47.16;100653.69;5075859;28;1067;-52
2023/07/05 03:20:38;;;;;;;;;;;;;;;15.61;47.01;100648.22;5058882;28;1107;-51
2023/07/05 03:23:03;;;;;;;;;;;;;;;15.54;47.04;100644.91;5057614;28;1174;-51
2023/07/05 03:25:29;;;;;;;;;;;;;;;15.62;47.04;100658.09;5076781;28;1127;-49
2023/07/05 03:27:54;;;;;;;;;;;;;;;15.56;47.38;100650.97;5064662;28;1163;-49
2023/07/05 03:30:20;;;;;;;;;;;;;;;15.53;47.25;100654.25;5076384;28;1019;-50
2023/07/05 03:32:46;;;;;;;;;;;;;;;15.49;47.28;100659.44;5058207;28;1898;-55
2023/07/05 03:35:11;;;;;;;;;;;;;;;15.56;47.33;100653.69;5076280;28;1063;-50
2023/07/05 03:37:37;;;;;;;;;;;;;;;15.56;47.08;100646.28;5058180;28;1228;-54
2023/07/05 03:40:03;;;;;;;;;;;;;;;15.56;47.48;100653.69;5076245;28;860;-45
2023/07/05 03:42:29;;;;;;;;;;;;;;;15.68;48.77;100648.81;5075438;28;1270;-50
2023/07/05 03:44:54;;;;;;;;;;;;;;;15.86;50.05;100646.66;5075956;28;1115;-52
2023/07/05 03:47:20;;;;;;;;;;;;;;;15.72;49.60;100652.66;5076270;28;1143;-51
2023/07/05 03:49:45;;;;;;;;;;;;;;;15.71;48.89;100648.25;5076329;28;1342;-50
2023/07/05 03:52:11;;;;;;;;;;;;;;;15.67;49.27;100652.63;5075666;28;1906;-50
2023/07/05 03:54:37;;;;;;;;;;;;;;;15.67;48.76;100654.53;5075205;28;1472;-51
2023/07/05 03:57:03;;;;;;;;;;;;;;;15.85;49.84;100661.47;5056345;28;988;-53
2023/07/05 03:59:28;;;;;;;;;;;;;;;16.28;51.26;100653.00;5069647;28;1143;-49
2023/07/05 04:01:55;;;;;;;;;;;;;;;16.39;52.30;100644.47;5073734;28;1202;-54
2023/07/05 04:04:20;;;;;;;;;;;;;;;16.16;51.52;100647.78;5075803;28;919;-52
2023/07/05 04:06:46;;;;;;;;;;;;;;;16.00;50.53;100646.97;5063029;28;1059;-51
2023/07/05 04:09:11;;;;;;;;;;;;;;;15.98;49.96;100635.44;5064536;28;1234;-46
2023/07/05 04:11:37;;;;;;;;;;;;;;;16.05;50.41;100634.06;5073173;28;1973;-52
2023/07/05 04:14:02;;;;;;;;;;;;;;;16.01;49.76;100638.44;5075301;28;1169;-47
2023/07/05 04:16:28;;;;;;;;;;;;;;;16.05;49.33;100636.81;5075335;28;1003;-57
2023/07/05 04:18:55;;;;;;;;;;;;;;;15.95;49.08;100633.22;5075633;28;1000;-55
2023/07/05 04:21:20;;;;;;;;;;;;;;;15.85;49.07;100639.53;5075492;28;1162;-56
2023/07/05 04:23:46;;;;;;;;;;;;;;;16.01;48.92;100640.38;5075367;28;1257;-55
2023/07/05 04:26:12;;;;;;;;;;;;;;;15.98;48.71;100639.00;5076239;28;1194;-55
2023/07/05 04:28:38;;;;;;;;;;;;;;;16.03;48.09;100643.66;5075718;28;986;-55
2023/07/05 04:31:03;;;;;;;;;;;;;;;15.98;47.99;100639.00;5075791;28;1101;-55
2023/07/05 04:33:29;;;;;;;;;;;;;;;15.91;47.88;100633.78;5075772;28;1972;-53
2023/07/05 04:35:55;;;;;;;;;;;;;;;15.93;47.68;100633.50;5079941;28;1022;-53
2023/07/05 04:38:21;;;;;;;;;;;;;;;16.05;47.27;100641.50;5079143;28;1074;-52
2023/07/05 04:40:46;;;;;;;;;;;;;;;15.94;47.82;100639.84;5078784;28;849;-54
2023/07/05 04:43:12;;;;;;;;;;;;;;;15.99;47.37;100640.66;5079238;28;1247;-53
2023/07/05 04:45:37;;;;;;;;;;;;;;;16.02;47.33;100640.09;5078947;28;1118;-54
2023/07/05 04:48:03;;;;;;;;;;;;;;;16.04;47.17;100642.56;5079015;28;1198;-55
2023/07/05 04:50:28;;;;;;;;;;;;;;;15.92;47.41;100634.59;5079208;28;1058;-53
2023/07/05 04:52:55;;;;;;;;;;;;;;;16.98;46.88;100646.91;5078574;28;1981;-55
2023/07/05 04:55:20;;;;;;;;;;;;;;;17.00;47.13;100653.75;5079060;28;1078;-54
2023/07/05 04:57:45;;;;;;;;;;;;;;;16.75;48.29;100646.38;5078896;28;1150;-55
2023/07/05 05:00:11;;;;;;;;;;;;;;;16.55;49.17;100647.22;5079135;28;1055;-52
2023/07/05 05:02:37;;;;;;;;;;;;;;;16.49;49.77;100646.41;5061291;28;1139;-54
2023/07/05 05:05:03;;;;;;;;;;;;;;;16.40;50.17;100648.06;5078644;28;948;-55
2023/07/05 05:07:29;;;;;;;;;;;;;;;16.34;50.66;100644.50;5061444;28;1126;-56
2023/07/05 05:09:56;;;;;;;;;;;;;;;16.31;50.90;100639.53;5079050;28;1162;-56
2023/07/05 05:12:21;;;;;;;;;;;;;;;16.26;51.62;100642.31;5079094;28;1921;-55
2023/07/05 05:14:47;;;;;;;;;;;;;;;16.29;51.49;100639.00;5078829;28;1027;-56
2023/07/05 05:17:12;;;;;;;;;;;;;;;16.22;52.27;100635.72;5078541;28;968;-56
2023/07/05 05:19:38;;;;;;;;;;;;;;;16.17;52.99;100639.31;5078535;28;1148;-54
2023/07/05 05:22:03;;;;;;;;;;;;;;;16.14;54.03;100641.75;5078125;28;1387;-55
2023/07/05 05:24:29;;;;;;;;;;;;;;;16.11;54.34;100643.13;5078549;28;1166;-55
2023/07/05 05:26:54;;;;;;;;;;;;;;;16.10;54.83;100638.72;5078399;28;1147;-54
2023/07/05 05:29:20;;;;;;;;;;;;;;;16.13;54.80;100648.34;5074720;28;977;-53
2023/07/05 05:31:45;;;;;;;;;;;;;;;16.10;54.89;100643.41;5077949;28;1909;-50
2023/07/05 05:34:11;;;;;;;;;;;;;;;16.04;54.97;100640.66;5060861;28;1441;-58
2023/07/05 05:36:36;;;;;;;;;;;;;;;16.04;55.58;100632.41;5078923;28;1122;-52
2023/07/05 05:39:02;;;;;;;;;;;;;;;16.15;56.57;100632.44;5077778;28;1425;-55
2023/07/05 05:41:28;;;;;;;;;;;;;;;16.12;57.21;100638.44;5078326;28;1146;-54
2023/07/05 05:43:53;;;;;;;;;;;;;;;16.06;57.13;100635.72;5078306;28;1157;-54
2023/07/05 05:46:19;;;;;;;;;;;;;;;16.00;57.03;100642.28;5077369;28;1139;-56
2023/07/05 05:48:44;;;;;;;;;;;;;;;16.02;56.75;100633.78;5077673;28;1109;-54
2023/07/05 05:51:10;;;;;;;;;;;;;;;16.01;56.66;100630.22;5077805;28;1241;-55
2023/07/05 05:53:35;;;;;;;;;;;;;;;15.95;56.76;100636.81;5077378;28;1925;-55
2023/07/05 05:56:01;;;;;;;;;;;;;;;15.92;56.88;100634.59;5077667;28;1066;-54
2023/07/05 05:58:26;;;;;;;;;;;;;;;15.89;56.78;100633.25;5077686;28;1071;-55
2023/07/05 06:00:52;;;;;;;;;;;;;;;15.89;56.77;100635.16;5077902;28;1079;-55
2023/07/05 06:03:17;;;;;;;;;;;;;;;15.91;56.84;100632.97;5077605;28;1113;-54
2023/07/05 06:05:43;;;;;;;;;;;;;;;15.86;57.11;100636.50;5077913;28;1070;-56
2023/07/05 06:08:08;;;;;;;;;;;;;;;15.86;57.23;100635.69;5077682;28;1039;-58
2023/07/05 06:10:34;;;;;;;;;;;;;;;15.85;57.06;100648.59;5077501;28;1229;-59
2023/07/05 06:12:59;;;;;;;;;;;;;;;15.86;56.78;100644.72;5076751;28;1906;-54
2023/07/05 06:15:25;;;;;;;;;;;;;;;15.86;56.75;100638.44;5077483;28;1105;-54
2023/07/05 06:17:50;;;;;;;;;;;;;;;15.82;56.96;100637.34;5077498;28;1066;-56
2023/07/05 06:20:16;;;;;;;;;;;;;;;15.82;57.04;100640.06;5077529;28;1182;-57
2023/07/05 06:22:41;;;;;;;;;;;;;;;15.80;56.79;100639.53;5077133;28;1070;-56
2023/07/05 06:25:07;;;;;;;;;;;;;;;15.90;57.68;100636.78;5077453;28;1074;-56
2023/07/05 06:27:33;;;;;;;;;;;;;;;15.85;57.62;100636.78;5076582;28;1031;-55
2023/07/05 06:29:59;;;;;;;;;;;;;;;15.79;57.98;100641.44;5077263;28;1054;-52
2023/07/05 06:32:24;;;;;;;;;;;;;;;15.80;57.67;100643.09;5076579;28;1910;-56
2023/07/05 06:34:51;;;;;;;;;;;;;;;15.79;57.68;100641.44;5077316;28;1106;-54
2023/07/05 06:37:16;;;;;;;;;;;;;;;15.78;57.81;100633.47;5077296;28;1162;-54
2023/07/05 06:39:42;;;;;;;;;;;;;;;15.82;58.24;100637.34;5076598;28;1034;-55
2023/07/05 06:42:07;;;;;;;;;;;;;;;15.78;58.00;100636.19;5077050;28;1066;-54
2023/07/05 06:44:34;;;;;;;;;;;;;;;15.79;58.16;100629.63;5076684;28;1107;-55
2023/07/05 06:46:59;;;;;;;;;;;;;;;15.80;58.00;100637.59;5059255;28;1048;-56
2023/07/05 06:49:25;;;;;;;;;;;;;;;15.77;58.05;100638.13;5076881;28;1209;-58
2023/07/05 06:51:50;;;;;;;;;;;;;;;15.72;58.21;100651.81;5076403;28;1959;-57
2023/07/05 06:54:16;;;;;;;;;;;;;;;15.77;57.79;100660.06;5076588;28;1087;-51
2023/07/05 06:56:42;;;;;;;;;;;;;;;15.77;57.82;100648.25;5076503;28;1031;-57
2023/07/05 06:59:07;;;;;;;;;;;;;;;15.76;57.83;100641.13;5076511;28;1117;-56
2023/07/05 07:01:33;;;;;;;;;;;;;;;15.73;57.91;100634.28;5076633;28;1142;-58
2023/07/05 07:03:58;;;;;;;;;;;;;;;15.67;57.89;100644.41;5076769;28;1153;-56
2023/07/05 07:06:24;;;;;;;;;;;;;;;15.69;57.94;100644.13;5076755;28;1198;-56
2023/07/05 07:08:49;;;;;;;;;;;;;;;15.71;57.88;100645.53;5076510;28;1059;-58
2023/07/05 07:11:15;;;;;;;;;;;;;;;15.74;57.97;100639.50;5076359;28;1067;-57
2023/07/05 07:13:41;;;;;;;;;;;;;;;15.71;58.14;100628.22;5076113;28;1910;-55
2023/07/05 07:16:06;;;;;;;;;;;;;;;15.73;57.80;100629.59;5076088;28;1097;-58
2023/07/05 07:18:32;;;;;;;;;;;;;;;15.69;58.15;100646.88;5076609;28;1162;-58
2023/07/05 07:20:59;;;;;;;;;;;;;;;15.68;58.40;100646.06;5076320;28;1054;-57
2023/07/05 07:23:25;;;;;;;;;;;;;;;15.68;58.66;100635.09;5076292;28;995;-58
2023/07/05 07:26:19;;;;;;;;;;;;;;;15.71;59.11;100629.06;5076250;28;1194;-59
2023/07/05 07:28:46;;;;;;;;;;;;;;;15.75;59.51;100632.06;5073128;28;1133;-58
2023/07/05 07:31:32;;;;;;;;;;;;;;;15.72;59.16;100627.13;5076065;28;1098;-59
2023/07/05 07:34:00;;;;;;;;;;;;;;;15.74;58.93;100625.78;5075771;28;1982;-58
2023/07/05 07:36:26;;;;;;;;;;;;;;;15.72;59.10;100627.13;5075961;28;1155;-58
2023/07/05 07:38:52;;;;;;;;;;;;;;;15.71;58.90;100623.59;5075992;28;1032;-59
2023/07/05 07:41:18;;;;;;;;;;;;;;;15.78;59.01;100633.47;5076040;28;873;-58
2023/07/05 07:43:44;;;;;;;;;;;;;;;15.76;58.77;100630.19;5076479;28;1147;-58
2023/07/05 07:46:10;;;;;;;;;;;;;;;15.79;58.89;100626.88;5075844;28;1497;-60
2023/07/05 07:48:36;;;;;;;;;;;;;;;15.73;58.95;100646.06;5075824;28;1476;-57
2023/07/05 07:51:01;;;;;;;;;;;;;;;15.72;58.97;100640.84;5075945;28;1147;-57
2023/07/05 07:53:27;;;;;;;;;;;;;;;15.72;59.04;100632.63;5075799;28;1913;-58
2023/07/05 07:55:52;;;;;;;;;;;;;;;15.78;59.26;100633.47;5075859;28;1162;-58
2023/07/05 07:58:18;;;;;;;;;;;;;;;15.69;59.07;100631.25;5075917;28;1142;-58
2023/07/05 08:00:44;;;;;;;;;;;;;;;15.71;59.03;100631.81;5075860;28;1050;-59
2023/07/05 08:03:09;;;;;;;;;;;;;;;15.70;59.11;100627.41;5075882;28;1242;-58
2023/07/05 08:05:35;;;;;;;;;;;;;;;15.66;59.31;100622.75;5075636;28;907;-58
2023/07/05 08:08:01;;;;;;;;;;;;;;;15.68;59.10;100632.34;5075082;28;1113;-57
2023/07/05 08:10:29;;;;;;;;;;;;;;;15.68;58.97;100629.63;5079240;28;1131;-57
2023/07/05 08:12:56;;;;;;;;;;;;;;;15.74;58.98;100634.00;5079301;28;1976;-57
2023/07/05 08:15:22;;;;;;;;;;;;;;;15.74;59.16;100634.00;5079682;28;1133;-57
2023/07/05 08:17:48;;;;;;;;;;;;;;;15.77;59.00;100632.63;5079682;28;1174;-57
2023/07/05 08:20:14;;;;;;;;;;;;;;;15.76;59.17;100635.66;5079440;28;1042;-57
2023/07/05 08:22:40;;;;;;;;;;;;;;;15.74;59.19;100634.00;5079744;28;1098;-58
2023/07/05 08:25:05;;;;;;;;;;;;;;;15.76;59.42;100625.50;5079402;28;1233;-57
2023/07/05 08:27:31;;;;;;;;;;;;;;;15.70;59.57;100627.41;5079209;28;1190;-56
2023/07/05 08:29:56;;;;;;;;;;;;;;;15.73;59.53;100626.88;5079359;28;999;-57
2023/07/05 08:32:22;;;;;;;;;;;;;;;15.76;59.34;100630.19;5078962;28;1909;-57
2023/07/05 08:34:49;;;;;;;;;;;;;;;15.69;59.51;100627.69;5079530;28;1131;-58
2023/07/05 08:37:14;;;;;;;;;;;;;;;15.73;59.11;100632.34;5078727;28;1504;-57
2023/07/05 08:39:40;;;;;;;;;;;;;;;15.74;59.28;100630.44;5079842;28;1126;-58
2023/07/05 08:42:08;;;;;;;;;;;;;;;15.77;59.71;100627.16;5079165;28;1579;-58
2023/07/05 08:44:37;;;;;;;;;;;;;;;15.77;59.41;100626.31;5079427;28;1043;-57
2023/07/05 08:47:02;;;;;;;;;;;;;;;15.74;59.45;100631.25;5079109;28;1170;-56
2023/07/05 08:49:33;;;;;;;;;;;;;;;15.77;59.20;100629.06;5079107;28;1131;-58
2023/07/05 08:51:58;;;;;;;;;;;;;;;15.76;59.13;100630.19;5079597;28;1906;-58
2023/07/05 08:54:32;;;;;;;;;;;;;;;15.84;59.14;100624.19;5079133;28;910;-57
2023/07/05 08:57:19;;;;;;;;;;;;;;;15.80;59.10;100620.34;5061725;28;1055;-57
2023/07/05 08:59:49;;;;;;;;;;;;;;;15.77;59.07;100637.28;5079500;28;1000;-57
2023/07/05 09:02:16;;;;;;;;;;;;;;;15.74;59.07;100628.53;5078609;28;1103;-58
2023/07/05 09:04:47;;;;;;;;;;;;;;;15.72;59.31;100627.13;5060099;28;1055;-58
2023/07/05 09:07:23;;;;;;;;;;;;;;;15.72;59.17;100624.41;5079066;28;940;-57
2023/07/05 09:09:51;;;;;;;;;;;;;;;15.74;59.07;100627.72;5078722;28;1097;-58
2023/07/05 09:12:16;;;;;;;;;;;;;;;15.70;59.34;100615.63;5078409;28;1906;-57
2023/07/05 09:14:42;;;;;;;;;;;;;;;15.70;59.31;100618.38;5078434;28;1039;-57
2023/07/05 09:17:16;;;;;;;;;;;;;;;15.71;59.46;100620.00;5078475;28;1086;-58
2023/07/05 09:19:58;;;;;;;;;;;;;;;15.79;59.36;100624.16;5059774;28;1126;-57
2023/07/05 09:22:24;;;;;;;;;;;;;;;15.77;59.63;100620.84;5061230;28;1214;-58
2023/07/05 09:24:50;;;;;;;;;;;;;;;15.84;59.37;100610.47;5078583;28;1066;-58
2023/07/05 09:27:20;;;;;;;;;;;;;;;15.74;59.46;100609.34;5060173;28;1183;-57
2023/07/05 09:30:06;;;;;;;;;;;;;;;15.78;59.64;100623.34;5060001;28;1039;-57
2023/07/05 09:32:35;;;;;;;;;;;;;;;15.80;59.47;100603.91;5078110;28;1978;-58
2023/07/05 09:35:00;;;;;;;;;;;;;;;15.77;59.64;100609.88;5060506;28;1130;-58
2023/07/05 09:37:27;;;;;;;;;;;;;;;15.78;59.71;100601.41;5077731;28;1515;-58
2023/07/05 09:40:06;;;;;;;;;;;;;;;15.80;59.63;100603.91;5078400;28;1213;-57
2023/07/05 09:42:34;;;;;;;;;;;;;;;15.79;59.67;100608.53;5077649;28;1078;-58
2023/07/05 09:44:59;;;;;;;;;;;;;;;15.77;59.95;100610.72;5060359;28;1099;-57
2023/07/05 09:47:25;;;;;;;;;;;;;;;15.80;60.04;100609.38;5077870;28;1126;-57
2023/07/05 09:49:50;;;;;;;;;;;;;;;15.84;59.61;100615.97;5060268;28;1060;-57
2023/07/05 09:52:17;;;;;;;;;;;;;;;15.74;60.05;100609.34;5077882;28;1910;-58
2023/07/05 09:54:43;;;;;;;;;;;;;;;15.81;59.81;100613.75;5055167;28;840;-58
2023/07/05 09:57:09;;;;;;;;;;;;;;;15.79;59.76;100607.69;5059893;28;1063;-58
2023/07/05 09:59:35;;;;;;;;;;;;;;;15.82;59.79;100612.66;5077618;28;1105;-58
2023/07/05 10:02:21;;;;;;;;;;;;;;;15.81;59.45;100620.06;5078107;28;1151;-58
2023/07/05 10:04:47;;;;;;;;;;;;;;;15.82;59.68;100601.69;5077171;28;1182;-58
2023/07/05 10:07:29;;;;;;;;;;;;;;;15.78;59.65;100606.03;5077286;28;903;-57
2023/07/05 10:09:59;;;;;;;;;;;;;;;15.73;59.66;100610.41;5076924;28;1062;-57
2023/07/05 10:12:31;;;;;;;;;;;;;;;15.77;59.95;100610.72;5077313;28;1983;-58
2023/07/05 10:14:57;;;;;;;;;;;;;;;15.81;59.89;100608.25;5077518;28;1206;-58
2023/07/05 10:17:23;;;;;;;;;;;;;;;15.84;59.75;100610.47;5074933;28;1074;-57
2023/07/05 10:19:49;;;;;;;;;;;;;;;15.79;59.92;100605.78;5075886;28;1031;-57
2023/07/05 10:22:15;;;;;;;;;;;;;;;15.84;59.59;100615.97;5077264;28;1023;-58
2023/07/05 10:24:43;;;;;;;;;;;;;;;15.82;59.69;100604.44;5076900;28;1177;-58
2023/07/05 10:27:19;;;;;;;;;;;;;;;15.83;59.76;100608.81;5077501;28;1135;-58
2023/07/05 10:29:47;;;;;;;;;;;;;;;15.82;59.80;100607.19;5059307;28;1110;-58
2023/07/05 10:32:16;;;;;;;;;;;;;;;15.78;59.82;100609.63;5076067;28;1910;-58
2023/07/05 10:34:43;;;;;;;;;;;;;;;15.85;59.61;100610.22;5069602;28;1031;-57
2023/07/05 10:37:22;;;;;;;;;;;;;;;15.87;59.85;100597.03;5071608;28;1067;-57
2023/07/05 10:39:48;;;;;;;;;;;;;;;15.87;59.85;100609.94;5059283;28;1125;-57
2023/07/05 10:42:13;;;;;;;;;;;;;;;15.83;60.09;100598.66;5076474;28;1284;-56
2023/07/05 10:44:40;;;;;;;;;;;;;;;15.82;59.94;100601.69;5076713;28;1269;-57
2023/07/05 10:47:06;;;;;;;;;;;;;;;15.88;59.68;100600.63;5059603;28;1226;-57
2023/07/05 10:49:32;;;;;;;;;;;;;;;15.84;60.08;100602.25;5076943;28;1156;-56
2023/07/05 10:52:01;;;;;;;;;;;;;;;15.83;59.80;100608.81;5058764;28;1918;-57
2023/07/05 10:54:36;;;;;;;;;;;;;;;15.80;59.81;100610.19;5076299;28;1151;-56
2023/07/05 10:57:09;;;;;;;;;;;;;;;15.82;60.07;100613.50;5076588;28;1125;-56
2023/07/05 10:59:39;;;;;;;;;;;;;;;15.82;60.01;100607.19;5076596;28;1055;-57
2023/07/05 11:02:23;;;;;;;;;;;;;;;15.82;59.95;100601.69;5059099;28;1178;-56
2023/07/05 11:04:49;;;;;;;;;;;;;;;15.78;59.81;100603.28;5076441;28;1106;-56
2023/07/05 11:07:15;;;;;;;;;;;;;;;15.78;59.85;100609.63;5058676;28;1068;-56
2023/07/05 11:09:41;;;;;;;;;;;;;;;15.76;59.80;100614.53;5076329;28;1135;-57
2023/07/05 11:12:13;;;;;;;;;;;;;;;15.80;59.71;100607.44;5076610;28;1977;-56
2023/07/05 11:14:39;;;;;;;;;;;;;;;15.83;59.76;100615.13;5076484;28;1138;-56
2023/07/05 11:17:05;;;;;;;;;;;;;;;15.77;59.93;100615.34;5058622;28;1167;-57
2023/07/05 11:19:30;;;;;;;;;;;;;;;15.78;59.78;100614.25;5076089;28;1090;-56
2023/07/05 11:21:56;;;;;;;;;;;;;;;15.76;59.93;100611.78;5076547;28;1042;-56
2023/07/05 11:24:25;;;;;;;;;;;;;;;15.75;60.02;100604.66;5076248;28;1194;-57
2023/07/05 11:26:50;;;;;;;;;;;;;;;15.75;59.96;100618.38;5076206;28;1144;-56
2023/07/05 11:29:39;;;;;;;;;;;;;;;15.79;59.85;100602.22;5076131;28;1070;-57
2023/07/05 11:32:06;;;;;;;;;;;;;;;15.78;59.66;100611.53;5075012;28;1997;-57
2023/07/05 11:34:32;;;;;;;;;;;;;;;15.77;59.78;100601.66;5075708;28;1046;-56
2023/07/05 11:37:03;;;;;;;;;;;;;;;15.76;59.79;100597.28;5076509;28;1154;-57
2023/07/05 11:39:51;;;;;;;;;;;;;;;15.71;60.07;100601.66;5063203;28;1488;-56
2023/07/05 11:42:16;;;;;;;;;;;;;;;15.73;59.61;100599.44;5076010;28;1055;-56
2023/07/05 11:44:48;;;;;;;;;;;;;;;15.76;59.66;100603.56;5078882;28;1104;-56
2023/07/05 11:47:22;;;;;;;;;;;;;;;15.71;59.73;100601.66;5080419;28;1008;-56
2023/07/05 11:49:52;;;;;;;;;;;;;;;15.76;59.92;100600.03;5080244;28;1169;-58
2023/07/05 11:52:29;;;;;;;;;;;;;;;15.72;59.96;100591.50;5062657;28;1917;-58
2023/07/05 11:55:13;;;;;;;;;;;;;;;15.76;59.64;100598.09;5079733;28;1189;-57
2023/07/05 11:57:47;;;;;;;;;;;;;;;15.79;59.43;100603.06;5079973;28;1079;-57
2023/07/05 12:00:20;;;;;;;;;;;;;;;15.74;59.64;100594.81;5062606;28;1127;-58
2023/07/05 12:02:47;;;;;;;;;;;;;;;15.81;59.58;100583.59;5080016;28;1135;-57
2023/07/05 12:05:15;;;;;;;;;;;;;;;15.76;59.38;100578.09;5080039;28;1100;-57
2023/07/05 12:07:42;;;;;;;;;;;;;;;15.75;59.76;100571.75;5062013;28;845;-57
2023/07/05 12:10:08;;;;;;;;;;;;;;;15.76;59.50;100578.09;5079475;28;1107;-57
2023/07/05 12:12:40;;;;;;;;;;;;;;;15.75;59.58;100569.03;5062384;28;1976;-57
2023/07/05 12:15:06;;;;;;;;;;;;;;;15.76;59.41;100564.38;5078805;28;1031;-57
2023/07/05 12:17:32;;;;;;;;;;;;;;;15.78;59.59;100564.91;5079536;28;1042;-57
2023/07/05 12:19:57;;;;;;;;;;;;;;;15.73;59.69;100569.28;5061122;28;1047;-57
2023/07/05 12:22:25;;;;;;;;;;;;;;;15.74;59.47;100562.72;5062035;28;1083;-57
2023/07/05 12:24:51;;;;;;;;;;;;;;;15.77;59.65;100553.13;5061875;28;1174;-58
2023/07/05 12:27:21;;;;;;;;;;;;;;;15.74;59.52;100551.75;5062144;28;1110;-57
2023/07/05 12:29:51;;;;;;;;;;;;;;;15.81;59.59;100545.19;5049376;28;1072;-57
2023/07/05 12:32:17;;;;;;;;;;;;;;;15.83;59.67;100549.31;5079252;28;1985;-58
2023/07/05 12:34:44;;;;;;;;;;;;;;;15.83;59.78;100549.31;5079697;28;1135;-59
2023/07/05 12:37:09;;;;;;;;;;;;;;;15.82;59.49;100544.97;5079319;28;1257;-58
2023/07/05 12:39:38;;;;;;;;;;;;;;;15.80;59.82;100551.81;5061582;28;1194;-58
2023/07/05 12:42:08;;;;;;;;;;;;;;;15.82;59.46;100542.22;5079681;28;1269;-59
2023/07/05 12:44:34;;;;;;;;;;;;;;;15.80;59.54;100547.13;5078906;28;873;-58
2023/07/05 12:47:13;;;;;;;;;;;;;;;15.73;59.86;100528.19;5078758;28;1065;-59
2023/07/05 12:49:39;;;;;;;;;;;;;;;15.78;60.00;100532.03;5079198;28;1075;-58